createdAt,value
2022-11-28T00:01:34.359Z,4.65
2022-11-28T00:04:01.283Z,4.22
2022-11-28T00:06:28.420Z,4.22
2022-11-28T00:08:58.605Z,5.10
2022-11-28T00:11:25.062Z,4.43
2022-11-28T00:13:51.490Z,4.90
2022-11-28T00:16:21.643Z,5.40
2022-11-28T00:18:51.962Z,6.18
2022-11-28T00:21:21.909Z,7.13
2022-11-28T00:23:48.612Z,7.15
2022-11-28T00:26:17.372Z,7.35
2022-11-28T00:28:43.830Z,6.18
2022-11-28T00:31:14.537Z,5.55
2022-11-28T00:33:41.481Z,5.43
2022-11-28T00:36:08.014Z,5.32
2022-11-28T00:38:34.447Z,4.88
2022-11-28T00:41:02.010Z,5.25
2022-11-28T00:43:28.748Z,4.40
2022-11-28T00:45:55.740Z,4.50
2022-11-28T00:48:22.205Z,4.72
2022-11-28T00:50:48.635Z,4.32
2022-11-28T00:53:15.053Z,4.53
2022-11-28T00:55:41.648Z,3.80
2022-11-28T00:58:08.322Z,3.47
2022-11-28T01:00:34.834Z,4.40
2022-11-28T01:03:01.316Z,4.25
2022-11-28T01:05:27.833Z,4.80
2022-11-28T01:07:54.462Z,4.35
2022-11-28T01:10:20.890Z,4.15
2022-11-28T01:12:47.336Z,4.32
2022-11-28T01:15:13.989Z,4.57
2022-11-28T01:17:40.453Z,4.50
2022-11-28T01:20:07.362Z,4.75
2022-11-28T01:22:34.065Z,5.95
2022-11-28T01:25:00.527Z,4.75
2022-11-28T01:27:27.012Z,4.78
2022-11-28T01:29:53.475Z,4.57
2022-11-28T01:32:19.888Z,4.93
2022-11-28T01:34:46.306Z,5.03
2022-11-28T01:37:12.802Z,4.78
2022-11-28T01:39:39.230Z,5.75
2022-11-28T01:42:05.664Z,5.53
2022-11-28T01:44:32.031Z,4.90
2022-11-28T01:46:58.569Z,5.05
2022-11-28T01:49:29.370Z,5.03
2022-11-28T01:51:58.456Z,5.30
2022-11-28T01:54:25.563Z,5.57
2022-11-28T01:56:54.964Z,5.63
2022-11-28T01:59:22.559Z,4.53
2022-11-28T02:01:48.980Z,4.35
2022-11-28T02:04:15.425Z,5.15
2022-11-28T02:06:42.303Z,5.07
2022-11-28T02:09:12.725Z,5.28
2022-11-28T02:11:57.954Z,5.05
2022-11-28T02:14:33.575Z,4.10
2022-11-28T02:16:59.936Z,5.10
2022-11-28T02:19:37.566Z,4.93
2022-11-28T02:22:06.948Z,4.97
2022-11-28T02:24:53.645Z,4.65
2022-11-28T02:27:28.577Z,4.53
2022-11-28T02:30:07.417Z,4.45
2022-11-28T02:32:42.055Z,4.63
2022-11-28T02:35:17.573Z,4.38
2022-11-28T02:37:47.978Z,4.82
2022-11-28T02:40:20.610Z,4.75
2022-11-28T02:43:11.407Z,4.90
2022-11-28T02:45:56.688Z,4.35
2022-11-28T02:48:26.177Z,5.00
2022-11-28T02:51:02.470Z,4.65
2022-11-28T02:53:30.541Z,4.78
2022-11-28T02:55:57.430Z,5.13
2022-11-28T02:58:24.149Z,5.40
2022-11-28T03:00:50.980Z,5.25
2022-11-28T03:03:23.436Z,5.00
2022-11-28T03:05:54.345Z,5.70
2022-11-28T03:08:20.915Z,5.05
2022-11-28T03:10:47.392Z,4.93
2022-11-28T03:13:29.646Z,5.20
2022-11-28T03:15:59.094Z,5.38
2022-11-28T03:18:39.726Z,4.53
2022-11-28T03:21:12.322Z,5.85
2022-11-28T03:23:43.827Z,5.55
2022-11-28T03:26:13.102Z,5.78
2022-11-28T03:28:55.407Z,5.85
2022-11-28T03:31:31.162Z,5.63
2022-11-28T03:33:59.141Z,5.53
2022-11-28T03:36:27.494Z,5.63
2022-11-28T03:39:01.684Z,5.68
2022-11-28T03:41:34.707Z,5.60
2022-11-28T03:44:02.373Z,5.47
2022-11-28T03:46:33.134Z,5.32
2022-11-28T03:49:00.794Z,5.97
2022-11-28T03:51:36.464Z,7.13
2022-11-28T03:54:07.073Z,6.88
2022-11-28T03:56:49.684Z,6.18
2022-11-28T03:59:16.051Z,6.68
2022-11-28T04:02:00.828Z,6.95
2022-11-28T04:04:33.298Z,7.30
2022-11-28T04:07:14.957Z,6.88
2022-11-28T04:09:49.408Z,6.38
2022-11-28T04:12:35.913Z,6.53
2022-11-28T04:15:06.405Z,5.80
2022-11-28T04:17:35.498Z,6.43
2022-11-28T04:20:16.504Z,6.13
2022-11-28T04:22:45.974Z,6.32
2022-11-28T04:25:13.940Z,5.70
2022-11-28T04:27:44.077Z,6.05
2022-11-28T04:30:11.195Z,6.15
2022-11-28T04:32:39.701Z,6.57
2022-11-28T04:35:16.773Z,6.05
2022-11-28T04:37:44.848Z,5.88
2022-11-28T04:40:11.919Z,6.60
2022-11-28T04:42:45.742Z,7.85
2022-11-28T04:45:17.991Z,6.70
2022-11-28T04:47:45.010Z,6.85
2022-11-28T04:50:13.447Z,6.38
2022-11-28T04:52:56.206Z,6.80
2022-11-28T04:55:29.082Z,7.03
2022-11-28T04:58:11.172Z,6.50
2022-11-28T05:00:38.353Z,6.35
2022-11-28T05:03:05.518Z,6.40
2022-11-28T05:05:32.270Z,7.53
2022-11-28T05:08:01.115Z,6.78
2022-11-28T05:10:27.636Z,7.38
2022-11-28T05:12:54.194Z,7.50
2022-11-28T05:15:20.670Z,7.65
2022-11-28T05:17:47.107Z,7.32
2022-11-28T05:20:14.026Z,7.30
2022-11-28T05:22:40.616Z,7.68
2022-11-28T05:25:07.258Z,7.13
2022-11-28T05:27:33.636Z,7.50
2022-11-28T05:30:00.085Z,7.32
2022-11-28T05:32:29.140Z,7.38
2022-11-28T05:34:55.691Z,8.50
2022-11-28T05:37:22.159Z,8.50
2022-11-28T05:39:48.579Z,8.20
2022-11-28T05:42:15.095Z,8.95
2022-11-28T05:44:41.517Z,8.55
2022-11-28T05:47:08.434Z,8.55
2022-11-28T05:49:35.140Z,9.02
2022-11-28T05:52:01.553Z,9.10
2022-11-28T05:54:28.040Z,8.45
2022-11-28T05:57:13.471Z,9.73
2022-11-28T05:59:40.034Z,9.10
2022-11-28T06:02:07.527Z,9.13
2022-11-28T06:04:34.173Z,9.60
2022-11-28T06:07:00.713Z,9.73
2022-11-28T06:09:27.250Z,9.57
2022-11-28T06:11:53.719Z,9.80
2022-11-28T06:14:20.185Z,10.27
2022-11-28T06:16:46.631Z,10.70
2022-11-28T06:19:13.500Z,10.40
2022-11-28T06:21:40.150Z,10.85
2022-11-28T06:24:06.825Z,10.88
2022-11-28T06:26:33.190Z,10.52
2022-11-28T06:28:59.569Z,14.38
2022-11-28T06:31:30.408Z,12.30
2022-11-28T06:33:57.765Z,12.40
2022-11-28T06:36:25.000Z,13.75
2022-11-28T06:38:51.611Z,12.60
2022-11-28T06:41:19.307Z,13.15
2022-11-28T06:43:45.682Z,13.15
2022-11-28T06:46:16.921Z,14.20
2022-11-28T06:48:44.119Z,14.15
2022-11-28T06:51:11.319Z,15.07
2022-11-28T06:53:37.715Z,14.98
2022-11-28T06:56:08.199Z,15.85
2022-11-28T06:58:35.174Z,16.45
2022-11-28T07:01:07.751Z,16.65
2022-11-28T07:03:34.276Z,18.52
2022-11-28T07:06:01.716Z,18.95
2022-11-28T07:08:28.195Z,18.50
2022-11-28T07:10:54.593Z,19.23
2022-11-28T07:13:21.029Z,19.98
2022-11-28T07:15:51.194Z,20.80
2022-11-28T07:18:17.713Z,20.75
2022-11-28T07:20:44.185Z,21.55
2022-11-28T07:23:10.588Z,20.80
2022-11-28T07:25:36.984Z,22.10
2022-11-28T07:28:03.441Z,22.73
2022-11-28T07:30:29.867Z,23.25
2022-11-28T07:32:56.292Z,31.13
2022-11-28T07:35:22.808Z,25.00
2022-11-28T07:37:49.224Z,25.20
2022-11-28T07:40:18.522Z,25.75
2022-11-28T07:42:44.957Z,25.60
2022-11-28T07:45:11.509Z,27.15
2022-11-28T07:47:40.535Z,27.33
2022-11-28T07:50:07.287Z,26.20
2022-11-28T07:52:33.719Z,28.25
2022-11-28T07:55:00.153Z,29.33
2022-11-28T07:57:26.583Z,26.90
2022-11-28T07:59:53.009Z,28.67
2022-11-28T08:02:19.634Z,29.42
2022-11-28T08:04:49.589Z,29.75
2022-11-28T08:07:32.579Z,28.92
2022-11-28T08:09:59.027Z,28.58
2022-11-28T08:12:25.681Z,29.77
2022-11-28T08:14:52.098Z,30.80
2022-11-28T08:17:18.533Z,31.33
2022-11-28T08:19:51.757Z,32.20
2022-11-28T08:22:18.292Z,32.53
2022-11-28T08:24:45.065Z,30.02
2022-11-28T08:27:11.826Z,30.75
2022-11-28T08:29:38.295Z,31.10
2022-11-28T08:32:04.962Z,30.70
2022-11-28T08:34:40.795Z,29.40
2022-11-28T08:37:07.277Z,29.73
2022-11-28T08:39:43.751Z,30.00
2022-11-28T08:42:24.852Z,29.25
2022-11-28T08:44:51.416Z,28.38
2022-11-28T08:47:18.016Z,28.95
2022-11-28T08:49:44.828Z,27.35
2022-11-28T08:52:11.456Z,26.92
2022-11-28T08:54:46.499Z,26.02
2022-11-28T08:57:17.791Z,25.48
2022-11-28T08:59:47.308Z,26.38
2022-11-28T09:02:19.866Z,24.30
2022-11-28T09:04:49.662Z,23.85
2022-11-28T09:07:16.238Z,23.35
2022-11-28T09:09:46.073Z,21.52
2022-11-28T09:12:12.761Z,22.98
2022-11-28T09:14:39.201Z,23.90
2022-11-28T09:17:10.008Z,23.45
2022-11-28T09:19:36.895Z,22.98
2022-11-28T09:22:13.458Z,23.20
2022-11-28T09:24:41.960Z,23.52
2022-11-28T09:27:08.613Z,24.55
2022-11-28T09:29:40.052Z,23.55
2022-11-28T09:32:11.783Z,26.75
2022-11-28T09:34:38.247Z,26.85
2022-11-28T09:37:05.206Z,28.67
2022-11-28T09:39:43.914Z,27.63
2022-11-28T09:42:23.323Z,26.27
2022-11-28T09:44:55.024Z,28.50
2022-11-28T09:47:32.393Z,28.65
2022-11-28T09:50:11.409Z,27.25
2022-11-28T09:52:40.236Z,28.73
2022-11-28T09:55:27.428Z,26.88
2022-11-28T09:57:57.210Z,29.15
2022-11-28T10:00:29.124Z,30.42
2022-11-28T10:03:14.945Z,30.15
2022-11-28T10:06:13.866Z,32.70
2022-11-28T10:08:50.680Z,36.90
2022-11-28T10:14:30.282Z,34.28
2022-11-28T10:17:23.362Z,33.72
2022-11-28T10:19:59.943Z,33.47
2022-11-28T10:22:40.526Z,33.25
2022-11-28T10:25:27.568Z,29.95
2022-11-28T10:30:47.783Z,30.48
2022-11-28T10:33:20.100Z,27.13
2022-11-28T10:35:48.785Z,26.55
2022-11-28T10:38:25.709Z,26.48
2022-11-28T10:41:20.451Z,24.95
2022-11-28T10:44:21.144Z,25.05
2022-11-28T10:46:54.666Z,24.17
2022-11-28T10:49:26.205Z,22.92
2022-11-28T10:52:02.287Z,22.10
2022-11-28T10:58:14.591Z,22.67
2022-11-28T11:00:56.182Z,23.20
2022-11-28T11:03:27.226Z,23.25
2022-11-28T11:06:22.514Z,23.98
2022-11-28T11:08:51.470Z,24.92
2022-11-28T11:11:21.694Z,26.77
2022-11-28T11:14:01.732Z,25.10
2022-11-28T11:16:56.441Z,25.58
2022-11-28T11:20:01.334Z,25.00
2022-11-28T11:22:34.224Z,26.58
2022-11-28T11:25:41.655Z,27.08
2022-11-28T11:28:31.562Z,27.05
2022-11-28T11:31:05.403Z,26.83
2022-11-28T11:33:40.857Z,28.17
2022-11-28T11:36:34.927Z,26.80
2022-11-28T11:39:21.117Z,27.50
2022-11-28T11:42:05.204Z,26.23
2022-11-28T11:44:39.534Z,27.05
2022-11-28T11:47:14.668Z,25.50
2022-11-28T11:49:53.165Z,26.05
2022-11-28T11:52:24.429Z,25.67
2022-11-28T11:55:00.893Z,23.90
2022-11-28T11:57:35.207Z,26.17
2022-11-28T12:00:19.253Z,25.58
2022-11-28T12:06:15.671Z,25.80
2022-11-28T12:11:30.849Z,24.58
2022-11-28T12:14:04.699Z,23.33
2022-11-28T12:17:32.602Z,22.60
2022-11-28T12:20:51.070Z,22.70
2022-11-28T12:23:54.027Z,23.15
2022-11-28T12:26:26.489Z,19.90
2022-11-28T12:34:28.853Z,22.35
2022-11-28T12:37:13.699Z,21.38
2022-11-28T12:39:40.424Z,20.73
2022-11-28T12:42:25.717Z,19.88
2022-11-28T12:45:01.566Z,20.17
2022-11-28T12:47:43.271Z,19.15
2022-11-28T12:50:36.223Z,19.20
2022-11-28T12:53:09.723Z,19.00
2022-11-28T12:58:08.613Z,18.42
2022-11-28T13:00:51.127Z,17.60
2022-11-28T13:03:30.005Z,18.05
2022-11-28T13:06:04.972Z,16.98
2022-11-28T13:08:47.991Z,17.23
2022-11-28T13:11:32.116Z,17.98
2022-11-28T13:14:13.174Z,17.75
2022-11-28T13:16:45.520Z,18.52
2022-11-28T13:19:12.000Z,16.83
2022-11-28T13:21:57.361Z,16.63
2022-11-28T13:24:30.038Z,18.70
2022-11-28T13:27:05.677Z,19.33
2022-11-28T13:29:50.724Z,17.63
2022-11-28T13:32:36.071Z,17.30
2022-11-28T13:35:03.243Z,16.67
2022-11-28T13:40:58.160Z,18.42
2022-11-28T13:43:28.103Z,16.88
2022-11-28T13:45:55.107Z,16.67
2022-11-28T13:51:34.754Z,17.00
2022-11-28T13:54:22.926Z,16.48
2022-11-28T13:57:11.601Z,15.75
2022-11-28T13:59:38.540Z,16.88
2022-11-28T14:02:12.982Z,15.70
2022-11-28T14:04:44.072Z,15.93
2022-11-28T14:07:20.882Z,16.58
2022-11-28T14:09:52.223Z,16.23
2022-11-28T14:12:21.928Z,16.00
2022-11-28T14:14:48.434Z,15.75
2022-11-28T14:17:27.229Z,15.52
2022-11-28T14:19:56.746Z,16.33
2022-11-28T14:22:23.282Z,14.40
2022-11-28T14:24:58.894Z,14.35
2022-11-28T14:27:27.956Z,14.88
2022-11-28T14:29:55.707Z,15.38
2022-11-28T14:33:00.611Z,15.60
2022-11-28T14:35:45.582Z,15.63
2022-11-28T14:38:35.447Z,15.57
2022-11-28T14:41:06.369Z,15.25
2022-11-28T14:43:36.185Z,16.02
2022-11-28T14:46:21.722Z,17.23
2022-11-28T14:49:08.698Z,15.93
2022-11-28T14:51:44.615Z,16.58
2022-11-28T14:54:25.711Z,15.98
2022-11-28T14:57:17.066Z,15.32
2022-11-28T14:59:43.693Z,17.45
2022-11-28T15:02:15.834Z,15.52
2022-11-28T15:04:45.848Z,16.63
2022-11-28T15:07:18.709Z,15.52
2022-11-28T15:09:49.977Z,15.32
2022-11-28T15:12:16.370Z,16.67
2022-11-28T15:14:44.524Z,16.00
2022-11-28T15:17:13.883Z,16.90
2022-11-28T15:19:59.890Z,16.60
2022-11-28T15:22:29.267Z,16.50
2022-11-28T15:25:01.865Z,16.48
2022-11-28T15:27:37.077Z,14.33
2022-11-28T15:30:32.331Z,16.17
2022-11-28T15:33:00.164Z,16.33
2022-11-28T15:35:27.178Z,16.13
2022-11-28T15:37:54.464Z,16.02
2022-11-28T15:41:15.197Z,16.90
2022-11-28T15:43:43.819Z,17.33
2022-11-28T15:46:14.825Z,15.10
2022-11-28T15:52:15.699Z,16.10
2022-11-28T15:54:42.767Z,17.25
2022-11-28T15:57:20.781Z,16.15
2022-11-28T15:59:47.595Z,17.67
2022-11-28T16:02:16.509Z,19.63
2022-11-28T16:04:44.822Z,16.40
2022-11-28T16:07:17.123Z,21.15
2022-11-28T16:10:05.060Z,18.27
2022-11-28T16:12:35.088Z,19.15
2022-11-28T16:15:06.827Z,18.13
2022-11-28T16:17:53.776Z,22.55
2022-11-28T16:20:30.234Z,17.17
2022-11-28T16:23:05.011Z,17.58
2022-11-28T16:25:32.690Z,15.68
2022-11-28T16:27:59.466Z,15.73
2022-11-28T16:30:32.761Z,14.90
2022-11-28T16:33:03.219Z,17.13
2022-11-28T16:35:31.530Z,15.30
2022-11-28T16:38:05.208Z,16.70
2022-11-28T16:40:31.798Z,16.27
2022-11-28T16:43:07.352Z,17.73
2022-11-28T16:45:40.246Z,17.33
2022-11-28T16:48:15.012Z,18.08
2022-11-28T16:51:04.461Z,17.85
2022-11-28T16:54:03.061Z,17.13
2022-11-28T16:56:39.221Z,18.27
2022-11-28T16:59:15.974Z,16.98
2022-11-28T17:01:49.246Z,17.33
2022-11-28T17:04:23.608Z,18.30
2022-11-28T17:06:51.299Z,17.17
2022-11-28T17:09:18.267Z,17.00
2022-11-28T17:11:47.721Z,20.15
2022-11-28T17:14:14.511Z,19.80
2022-11-28T17:16:49.992Z,19.25
2022-11-28T17:19:21.735Z,18.25
2022-11-28T17:21:51.002Z,17.50
2022-11-28T17:24:21.123Z,18.02
2022-11-28T17:26:47.694Z,17.20
2022-11-28T17:29:17.577Z,19.13
2022-11-28T17:31:46.847Z,19.90
2022-11-28T17:34:21.870Z,20.30
2022-11-28T17:36:51.756Z,19.95
2022-11-28T17:39:19.183Z,19.77
2022-11-28T17:41:47.034Z,22.70
2022-11-28T17:44:19.770Z,23.48
2022-11-28T17:46:46.839Z,25.73
2022-11-28T17:49:13.516Z,24.25
2022-11-28T17:51:40.368Z,25.25
2022-11-28T17:54:10.010Z,24.48
2022-11-28T17:56:38.580Z,26.80
2022-11-28T17:59:05.169Z,25.15
2022-11-28T18:01:34.736Z,27.52
2022-11-28T18:04:24.766Z,25.48
2022-11-28T18:12:03.841Z,23.58
2022-11-28T18:14:33.953Z,22.40
2022-11-28T18:17:03.170Z,25.25
2022-11-28T18:19:32.167Z,26.75
2022-11-28T18:21:58.778Z,26.02
2022-11-28T18:24:27.871Z,25.10
2022-11-28T18:26:54.270Z,25.60
2022-11-28T18:29:31.080Z,24.08
2022-11-28T18:32:00.633Z,24.55
2022-11-28T18:34:31.289Z,22.98
2022-11-28T18:37:06.516Z,24.30
2022-11-28T18:39:40.755Z,21.95
2022-11-28T18:42:13.594Z,20.10
2022-11-28T18:44:40.138Z,22.63
2022-11-28T18:47:18.675Z,23.70
2022-11-28T18:50:21.506Z,24.23
2022-11-28T18:52:48.073Z,23.35
2022-11-28T18:55:39.621Z,22.38
2022-11-28T18:58:13.062Z,23.30
2022-11-28T19:00:50.028Z,23.50
2022-11-28T19:03:23.309Z,25.50
2022-11-28T19:06:38.173Z,29.42
2022-11-28T19:09:19.881Z,29.40
2022-11-28T19:15:29.299Z,27.83
2022-11-28T19:17:57.388Z,26.38
2022-11-28T19:20:24.681Z,27.13
2022-11-28T19:23:07.533Z,28.65
2022-11-28T19:25:48.265Z,29.97
2022-11-28T19:28:55.327Z,32.00
2022-11-28T19:31:34.252Z,30.80
2022-11-28T19:34:14.293Z,30.02
2022-11-28T19:36:54.513Z,29.55
2022-11-28T19:39:25.250Z,30.10
2022-11-28T19:41:53.382Z,30.33
2022-11-28T19:44:23.004Z,31.73
2022-11-28T19:46:55.218Z,28.20
2022-11-28T19:49:26.288Z,30.20
2022-11-28T19:51:58.884Z,28.63
2022-11-28T19:54:25.722Z,29.00
2022-11-28T19:56:54.822Z,30.00
2022-11-28T19:59:24.188Z,30.20
2022-11-28T20:02:00.510Z,29.27
2022-11-28T20:04:27.359Z,26.63
2022-11-28T20:06:56.901Z,31.00
2022-11-28T20:09:30.342Z,29.38
2022-11-28T20:14:45.712Z,28.58
2022-11-28T20:18:17.394Z,26.40
2022-11-28T20:23:26.060Z,28.38
2022-11-28T20:28:49.415Z,25.08
2022-11-28T20:31:48.966Z,25.70
2022-11-28T20:34:16.675Z,24.58
2022-11-28T20:36:44.093Z,25.30
2022-11-28T20:39:12.005Z,26.13
2022-11-28T20:41:38.777Z,26.15
2022-11-28T20:44:05.581Z,22.67
2022-11-28T20:46:33.762Z,21.67
2022-11-28T20:49:01.574Z,26.27
2022-11-28T20:51:38.714Z,26.88
2022-11-28T20:54:06.259Z,24.23
2022-11-28T20:56:51.619Z,25.83
2022-11-28T20:59:26.909Z,25.42
2022-11-28T21:01:53.464Z,25.70
2022-11-28T21:04:20.092Z,25.10
2022-11-28T21:06:47.550Z,26.67
2022-11-28T21:09:14.599Z,26.65
2022-11-28T21:11:56.917Z,26.05
2022-11-28T21:14:24.807Z,26.42
2022-11-28T21:16:51.374Z,25.92
2022-11-28T21:19:17.844Z,28.83
2022-11-28T21:21:53.372Z,28.20
2022-11-28T21:24:19.913Z,25.02
2022-11-28T21:26:51.314Z,29.48
2022-11-28T21:29:20.531Z,27.20
2022-11-28T21:31:47.213Z,29.23
2022-11-28T21:34:17.768Z,29.13
2022-11-28T21:36:44.655Z,31.13
2022-11-28T21:39:21.872Z,31.27
2022-11-28T21:41:48.946Z,31.52
2022-11-28T21:44:15.503Z,36.45
2022-11-28T21:46:44.812Z,36.13
2022-11-28T21:49:11.442Z,33.70
2022-11-28T21:51:37.927Z,31.73
2022-11-28T21:54:04.563Z,31.58
2022-11-28T21:56:39.023Z,31.90
2022-11-28T21:59:05.631Z,32.55
2022-11-28T22:01:32.161Z,31.90
2022-11-28T22:04:02.412Z,30.15
2022-11-28T22:06:29.985Z,28.83
2022-11-28T22:08:56.794Z,29.77
2022-11-28T22:11:26.990Z,29.83
2022-11-28T22:13:53.448Z,30.45
2022-11-28T22:16:21.329Z,28.70
2022-11-28T22:18:48.287Z,29.90
2022-11-28T22:24:03.225Z,32.05
2022-11-28T22:26:29.697Z,32.47
2022-11-28T22:28:56.117Z,32.20
2022-11-28T22:31:22.739Z,33.88
2022-11-28T22:33:49.982Z,32.78
2022-11-28T22:36:18.301Z,31.58
2022-11-28T22:38:45.403Z,33.35
2022-11-28T22:41:13.330Z,35.45
2022-11-28T22:43:40.207Z,32.92
2022-11-28T22:46:08.083Z,31.52
2022-11-28T22:48:37.265Z,31.95
2022-11-28T22:51:08.162Z,31.05
2022-11-28T22:53:34.910Z,29.95
2022-11-28T22:56:08.855Z,30.95
2022-11-28T22:58:42.722Z,29.83
2022-11-28T23:01:10.678Z,31.77
2022-11-28T23:03:37.134Z,31.35
2022-11-28T23:06:04.582Z,29.58
2022-11-28T23:08:31.014Z,27.33
2022-11-28T23:10:57.755Z,26.67
2022-11-28T23:13:24.221Z,27.83
2022-11-28T23:15:52.926Z,27.38
2022-11-28T23:18:19.566Z,27.30
2022-11-28T23:20:46.003Z,26.77
2022-11-28T23:23:12.425Z,24.80
2022-11-28T23:25:38.772Z,24.65
2022-11-28T23:28:05.235Z,23.27
2022-11-28T23:30:31.650Z,24.58
2022-11-28T23:32:58.076Z,23.38
2022-11-28T23:35:24.505Z,24.20
2022-11-28T23:37:50.923Z,25.45
2022-11-28T23:40:17.346Z,24.90
2022-11-28T23:42:43.792Z,26.92
2022-11-28T23:45:10.469Z,21.52
2022-11-28T23:47:36.913Z,23.45
2022-11-28T23:50:03.568Z,24.92
2022-11-28T23:52:30.075Z,25.60
2022-11-28T23:54:56.494Z,22.17
2022-11-28T23:57:22.984Z,21.10
2022-11-28T23:59:49.439Z,23.10
